Alexandria, VA (22304)

8:48 PM EDT on August 26, 2016 (GMT -0400)
West River | | Change Station

Elev 15 ft 38.85 °N, 76.54 °W | Updated 366 days ago

Clear
Clear
82 °F
Feels Like 87 °F
N
4
Wind Variable Wind from NNW
Gusts mph

Today
High -- | Low -- °F
--% Chance of Precip.
Yesterday
High -- | Low -- °F
Precip. -- in
Pressure 30.04 in
Visibility 10.0 miles
Clouds Few 25000 ft
Heat Index 87 °F
Dew Point 72 °F
Humidity 71%
Rainfall in
Snow Depth Not available.
6:32 AM 7:47 PM
Waning Crescent, 29% visible
METAR KDCA 262352Z 31007KT 10SM FEW250 32/21 A3003 RMK AO2 SLP170 T03220206 10350 20322 55000
Pressure 30.04 in
Visibility 10.0 miles
Clouds Few 25000 ft
Heat Index 87 °F
Dew Point 72 °F
Humidity 71%
Rainfall in
Snow Depth Not available.
6:32 AM 7:47 PM
Waning Crescent, 29% visible
METAR KDCA 262352Z 31007KT 10SM FEW250 32/21 A3003 RMK AO2 SLP170 T03220206 10350 20322 55000

10-Day Weather Forecast

Almanac

Astronomy

Aug. 26, 2016 Rise Set
Actual Time
Civil Twilight
Nautical Twilight
Astronomical Twilight
Moon
Length of Visible Light
Length of Day
Tomorrow will be .
, % of the Moon is Illuminated

Today's Extremes

State Highs State Lows

Community

WunderPhotos

Upload Photos

1,935,259 photos uploaded!

WunderBlog® & News

Nearby

Air Quality

  Air Quality AQ Index Pollutant
Not available.

Snow Depth

Station Depth Elevation

Earthquake Activity

City Distance Mag. Time & Date
Minimum magnitude displayed is 2.5.

Coastal Water Temperatures

Place Temperature

Stations

Nearby Weather Stations

Station Location Temp. Windchill Dew Point Humidity Wind Precip. Elev Updated Type
                   

Watches & Warnings

There are currently no watches in effect.